Time;durP1;ratioP1;P1;durP2;ratioP2;P2;SDS_P1;SDS_P2;PMS_P1;PMS_P2;Temp;Humidity;BMP_temperature;BMP_pressure;BME280_temperature;BME280_humidity;BME280_pressure;Samples;Min_cycle;Max_cycle;Signal;HPM_P1;HPM_P2
2022/06/22 00:00:11;;;;;;;3.47;3.10;;;;;;;;;;5053858;28;20405;-54
2022/06/22 00:02:38;;;;;;;7.10;3.10;;;;;;;;;;5054004;28;20421;-53
2022/06/22 00:05:05;;;;;;;3.60;3.13;;;;;;;;;;5053994;28;20410;-53
2022/06/22 00:07:34;;;;;;;3.50;2.87;;;;;;;;;;5053902;28;20427;-54
2022/06/22 00:10:12;;;;;;;9.13;3.50;;;;;;;;;;5053835;28;20436;-53
2022/06/22 00:12:38;;;;;;;3.17;2.90;;;;;;;;;;5054143;28;20748;-54
2022/06/22 00:15:19;;;;;;;6.03;2.90;;;;;;;;;;5053781;28;20406;-53
2022/06/22 00:17:45;;;;;;;2.90;2.70;;;;;;;;;;5053918;28;20380;-53
2022/06/22 00:20:13;;;;;;;7.73;2.70;;;;;;;;;;5053716;28;20388;-54
2022/06/22 00:22:49;;;;;;;9.83;2.77;;;;;;;;;;5053691;28;20911;-54
2022/06/22 00:25:21;;;;;;;5.23;3.10;;;;;;;;;;5053680;28;20458;-54
2022/06/22 00:27:47;;;;;;;5.67;2.80;;;;;;;;;;5053601;28;20431;-53
2022/06/22 00:30:16;;;;;;;5.00;2.80;;;;;;;;;;5053279;28;20805;-54
2022/06/22 00:33:02;;;;;;;3.00;2.70;;;;;;;;;;5053879;28;20401;-53
2022/06/22 00:35:47;;;;;;;3.77;3.00;;;;;;;;;;5053508;28;20397;-53
2022/06/22 00:38:15;;;;;;;4.23;2.77;;;;;;;;;;5053654;28;20778;-54
2022/06/22 00:40:41;;;;;;;4.80;3.47;;;;;;;;;;5053084;28;20403;-55
2022/06/22 00:43:07;;;;;;;6.97;3.03;;;;;;;;;;5053322;28;20734;-53
2022/06/22 00:45:34;;;;;;;6.37;2.77;;;;;;;;;;5053320;28;20432;-54
2022/06/22 00:48:15;;;;;;;4.90;2.77;;;;;;;;;;5053176;28;20444;-54
2022/06/22 00:50:44;;;;;;;2.20;2.00;;;;;;;;;;5052892;28;20778;-53
2022/06/22 00:53:19;;;;;;;3.03;2.77;;;;;;;;;;5053149;28;20376;-53
2022/06/22 00:55:50;;;;;;;3.10;2.50;;;;;;;;;;5052946;28;20407;-54
2022/06/22 00:58:19;;;;;;;7.27;3.37;;;;;;;;;;5053055;28;20387;-53
2022/06/22 01:00:54;;;;;;;4.10;2.77;;;;;;;;;;5052238;28;20429;-55
2022/06/22 01:03:20;;;;;;;3.10;2.67;;;;;;;;;;5052644;28;20419;-54
2022/06/22 01:05:57;;;;;;;6.03;2.80;;;;;;;;;;5052593;28;20375;-55
2022/06/22 01:08:27;;;;;;;6.53;3.17;;;;;;;;;;5052758;28;21029;-53
2022/06/22 01:11:01;;;;;;;4.10;2.80;;;;;;;;;;5052348;28;20827;-54
2022/06/22 01:13:33;;;;;;;2.70;2.50;;;;;;;;;;5052731;28;20503;-54
2022/06/22 01:16:02;;;;;;;8.63;3.33;;;;;;;;;;5052629;28;20399;-53
2022/06/22 01:18:41;;;;;;;4.30;3.30;;;;;;;;;;5052645;28;20419;-54
2022/06/22 01:21:11;;;;;;;12.13;4.03;;;;;;;;;;5052252;28;20423;-53
2022/06/22 01:23:43;;;;;;;5.33;3.23;;;;;;;;;;5052466;28;20415;-55
2022/06/22 01:26:27;;;;;;;6.60;3.33;;;;;;;;;;5052440;28;20387;-54
2022/06/22 01:28:54;;;;;;;3.20;3.00;;;;;;;;;;5052445;28;20878;-54
2022/06/22 01:31:20;;;;;;;3.93;3.53;;;;;;;;;;5052100;28;20420;-53
2022/06/22 01:33:48;;;;;;;6.03;3.43;;;;;;;;;;5052336;28;20454;-53
2022/06/22 01:36:18;;;;;;;6.20;3.97;;;;;;;;;;5052251;28;20396;-54
2022/06/22 01:38:44;;;;;;;3.87;3.40;;;;;;;;;;5052239;28;20399;-54
2022/06/22 01:41:20;;;;;;;4.43;4.00;;;;;;;;;;5052162;28;20400;-55
2022/06/22 01:43:57;;;;;;;6.60;3.50;;;;;;;;;;5052268;28;20400;-53
2022/06/22 01:46:24;;;;;;;5.83;4.40;;;;;;;;;;5052178;28;20370;-55
2022/06/22 01:49:03;;;;;;;8.23;4.37;;;;;;;;;;5052503;28;20536;-54
2022/06/22 01:51:33;;;;;;;4.03;3.67;;;;;;;;;;5051853;28;20474;-53
2022/06/22 01:54:21;;;;;;;4.07;3.53;;;;;;;;;;5051989;28;20466;-53
2022/06/22 01:57:06;;;;;;;5.07;4.37;;;;;;;;;;5051926;28;20932;-55
2022/06/22 01:59:32;;;;;;;10.20;4.90;;;;;;;;;;5051939;28;20372;-53
2022/06/22 02:02:01;;;;;;;4.87;3.57;;;;;;;;;;5051578;28;20423;-53
2022/06/22 02:04:30;;;;;;;5.80;4.10;;;;;;;;;;5052013;28;20365;-53
2022/06/22 02:10:00;;;;;;;4.87;3.63;;;;;;;;;;5051858;28;20371;-53
2022/06/22 02:12:29;;;;;;;4.80;3.70;;;;;;;;;;5051775;28;20426;-54
2022/06/22 02:15:01;;;;;;;9.70;4.10;;;;;;;;;;5051811;28;20396;-53
2022/06/22 02:17:29;;;;;;;3.80;3.40;;;;;;;;;;5051818;28;20402;-54
2022/06/22 02:20:13;;;;;;;3.50;3.20;;;;;;;;;;5051109;28;20400;-54
2022/06/22 02:22:39;;;;;;;4.53;3.23;;;;;;;;;;5051820;28;20425;-53
2022/06/22 02:25:06;;;;;;;4.43;3.30;;;;;;;;;;5051638;28;20412;-53
2022/06/22 02:27:32;;;;;;;8.53;3.40;;;;;;;;;;5051635;28;20451;-53
2022/06/22 02:29:58;;;;;;;6.00;3.63;;;;;;;;;;5051678;28;20399;-54
2022/06/22 02:32:32;;;;;;;5.50;4.50;;;;;;;;;;5051251;28;20429;-53
2022/06/22 02:34:59;;;;;;;4.07;3.50;;;;;;;;;;5051599;28;20427;-55
2022/06/22 02:37:26;;;;;;;4.80;4.17;;;;;;;;;;5051610;28;20433;-53
2022/06/22 02:39:54;;;;;;;6.30;3.83;;;;;;;;;;5051576;28;20413;-53
2022/06/22 02:45:09;;;;;;;10.73;3.67;;;;;;;;;;5051798;28;20389;-53
2022/06/22 02:47:44;;;;;;;8.97;3.67;;;;;;;;;;5051389;28;20458;-53
2022/06/22 02:50:10;;;;;;;4.60;3.20;;;;;;;;;;5051171;28;20395;-59
2022/06/22 02:52:40;;;;;;;8.33;4.73;;;;;;;;;;5051451;28;20429;-53
2022/06/22 02:55:10;;;;;;;4.70;4.20;;;;;;;;;;5051294;28;20905;-54
2022/06/22 02:57:37;;;;;;;5.57;3.60;;;;;;;;;;5051384;28;20447;-53
2022/06/22 03:00:03;;;;;;;5.87;3.80;;;;;;;;;;5051223;28;20409;-53
2022/06/22 03:02:29;;;;;;;6.20;3.63;;;;;;;;;;5051226;28;20461;-53
2022/06/22 03:04:57;;;;;;;5.90;4.17;;;;;;;;;;5051356;28;20444;-53
2022/06/22 03:07:23;;;;;;;4.00;3.60;;;;;;;;;;5051242;28;20453;-53
2022/06/22 03:09:51;;;;;;;6.20;4.10;;;;;;;;;;5051172;28;20400;-53
2022/06/22 03:12:18;;;;;;;4.80;3.60;;;;;;;;;;5050960;28;20440;-55
2022/06/22 03:14:55;;;;;;;3.97;3.67;;;;;;;;;;5051267;28;20440;-54
2022/06/22 03:17:26;;;;;;;4.50;3.70;;;;;;;;;;5051370;28;20406;-54
2022/06/22 03:19:54;;;;;;;4.67;3.93;;;;;;;;;;5051145;28;20469;-55
2022/06/22 03:22:42;;;;;;;3.87;3.57;;;;;;;;;;5050818;28;20407;-55
2022/06/22 03:25:14;;;;;;;4.60;4.10;;;;;;;;;;5051164;28;20401;-55
2022/06/22 03:27:44;;;;;;;5.20;4.70;;;;;;;;;;5051092;28;20863;-54
2022/06/22 03:30:19;;;;;;;6.43;4.70;;;;;;;;;;5050848;28;20398;-55
2022/06/22 03:32:49;;;;;;;6.73;4.97;;;;;;;;;;5052448;28;20404;-55
2022/06/22 03:35:21;;;;;;;8.17;4.83;;;;;;;;;;5054632;28;20410;-54
2022/06/22 03:37:49;;;;;;;5.27;4.77;;;;;;;;;;5054631;28;20405;-55
2022/06/22 03:40:28;;;;;;;5.80;4.90;;;;;;;;;;5054400;28;20408;-55
2022/06/22 03:42:59;;;;;;;5.20;4.23;;;;;;;;;;5054502;28;20398;-55
2022/06/22 03:45:30;;;;;;;8.30;4.40;;;;;;;;;;5054338;28;20411;-55
2022/06/22 03:47:56;;;;;;;6.30;4.53;;;;;;;;;;5054388;28;20592;-55
2022/06/22 03:50:35;;;;;;;4.93;4.43;;;;;;;;;;5054124;28;20945;-55
2022/06/22 03:53:09;;;;;;;5.13;4.63;;;;;;;;;;5054427;28;20403;-55
2022/06/22 03:55:37;;;;;;;6.60;4.60;;;;;;;;;;5054255;28;20475;-55
2022/06/22 03:58:04;;;;;;;5.93;5.43;;;;;;;;;;5054166;28;20469;-55
2022/06/22 04:00:31;;;;;;;10.10;4.60;;;;;;;;;;5054007;28;20438;-55
2022/06/22 04:02:58;;;;;;;11.50;4.50;;;;;;;;;;5054149;28;20405;-55
2022/06/22 04:05:25;;;;;;;7.83;4.93;;;;;;;;;;5054084;28;20406;-55
2022/06/22 04:07:53;;;;;;;7.50;4.97;;;;;;;;;;5053949;28;20453;-54
2022/06/22 04:10:28;;;;;;;6.17;5.20;;;;;;;;;;5053550;28;20406;-54
2022/06/22 04:12:55;;;;;;;6.50;4.30;;;;;;;;;;5054132;28;20399;-54
2022/06/22 04:15:30;;;;;;;4.77;4.37;;;;;;;;;;5053802;28;20438;-54
2022/06/22 04:18:01;;;;;;;11.67;3.87;;;;;;;;;;5053900;28;20430;-54
2022/06/22 04:20:51;;;;;;;4.53;4.13;;;;;;;;;;5053471;28;20416;-55
2022/06/22 04:23:34;;;;;;;5.00;4.50;;;;;;;;;;5053762;28;20423;-55
2022/06/22 04:26:04;;;;;;;7.40;4.30;;;;;;;;;;5053717;28;20380;-55
2022/06/22 04:28:32;;;;;;;13.03;5.67;;;;;;;;;;5053619;28;20453;-55
2022/06/22 04:30:58;;;;;;;4.73;4.33;;;;;;;;;;5053266;28;20473;-55
2022/06/22 04:33:43;;;;;;;4.50;4.07;;;;;;;;;;5053461;28;20397;-54
2022/06/22 04:36:20;;;;;;;5.80;5.10;;;;;;;;;;5053539;28;20405;-54
2022/06/22 04:38:52;;;;;;;6.77;5.20;;;;;;;;;;5053496;28;20405;-55
2022/06/22 04:41:17;;;;;;;4.40;4.10;;;;;;;;;;5053046;28;20429;-55
2022/06/22 04:43:44;;;;;;;9.17;5.90;;;;;;;;;;5052735;28;20412;-55
2022/06/22 04:46:13;;;;;;;7.03;5.30;;;;;;;;;;5053294;28;20414;-54
2022/06/22 04:48:41;;;;;;;6.73;4.47;;;;;;;;;;5053165;28;20550;-55
2022/06/22 04:51:11;;;;;;;8.33;5.00;;;;;;;;;;5052965;28;20439;-55
2022/06/22 04:53:42;;;;;;;7.47;4.67;;;;;;;;;;5053237;28;20403;-54
2022/06/22 04:56:13;;;;;;;6.27;4.47;;;;;;;;;;5052979;28;20418;-54
2022/06/22 04:58:55;;;;;;;4.97;4.30;;;;;;;;;;5053036;28;20917;-54
2022/06/22 05:01:26;;;;;;;5.90;4.87;;;;;;;;;;5052605;28;20933;-55
2022/06/22 05:03:54;;;;;;;8.97;5.10;;;;;;;;;;5053421;28;20400;-55
2022/06/22 05:06:24;;;;;;;7.43;4.77;;;;;;;;;;5051697;28;20912;-55
2022/06/22 05:08:54;;;;;;;5.63;4.90;;;;;;;;;;5052786;28;20461;-55
2022/06/22 05:11:26;;;;;;;6.47;4.97;;;;;;;;;;5052504;28;21003;-55
2022/06/22 05:13:54;;;;;;;6.10;4.83;;;;;;;;;;5052675;28;20403;-55
2022/06/22 05:16:23;;;;;;;9.60;5.30;;;;;;;;;;5052752;28;20406;-55
2022/06/22 05:18:50;;;;;;;5.70;4.60;;;;;;;;;;5052727;28;20377;-54
2022/06/22 05:21:19;;;;;;;5.80;5.27;;;;;;;;;;5052181;28;20502;-55
2022/06/22 05:23:47;;;;;;;5.70;5.10;;;;;;;;;;5052597;28;20405;-55
2022/06/22 05:26:18;;;;;;;6.37;5.73;;;;;;;;;;5052497;28;20418;-55
2022/06/22 05:28:49;;;;;;;6.33;5.63;;;;;;;;;;5052376;28;20582;-55
2022/06/22 05:31:38;;;;;;;6.80;5.67;;;;;;;;;;5052110;28;20418;-55
2022/06/22 05:34:13;;;;;;;7.97;6.10;;;;;;;;;;5049322;28;20781;-55
2022/06/22 05:36:42;;;;;;;6.70;5.80;;;;;;;;;;5052466;28;20817;-55
2022/06/22 05:39:09;;;;;;;7.70;5.70;;;;;;;;;;5052199;28;20940;-55
2022/06/22 05:41:37;;;;;;;6.23;5.17;;;;;;;;;;5052043;28;20516;-55
2022/06/22 05:44:06;;;;;;;9.43;6.37;;;;;;;;;;5052114;28;20428;-55
2022/06/22 05:46:33;;;;;;;9.93;4.90;;;;;;;;;;5052179;28;20413;-55
2022/06/22 05:48:59;;;;;;;9.00;5.50;;;;;;;;;;5052967;28;20799;-54
2022/06/22 05:51:35;;;;;;;6.70;5.30;;;;;;;;;;5051710;28;20395;-54
2022/06/22 05:54:03;;;;;;;10.00;5.90;;;;;;;;;;5052033;28;20410;-54
2022/06/22 05:56:29;;;;;;;9.20;5.23;;;;;;;;;;5051181;28;20376;-54
2022/06/22 05:59:18;;;;;;;10.90;5.40;;;;;;;;;;5052231;28;20450;-54
2022/06/22 06:02:02;;;;;;;7.53;4.77;;;;;;;;;;5052279;28;20432;-55
2022/06/22 06:04:37;;;;;;;7.80;5.30;;;;;;;;;;5051989;28;20392;-55
2022/06/22 06:07:14;;;;;;;6.40;4.47;;;;;;;;;;5051696;28;20447;-55
2022/06/22 06:09:41;;;;;;;6.63;4.37;;;;;;;;;;5051835;28;20393;-56
2022/06/22 06:12:14;;;;;;;5.40;4.00;;;;;;;;;;5051535;28;20421;-56
2022/06/22 06:14:43;;;;;;;5.70;5.10;;;;;;;;;;5051854;28;20431;-56
2022/06/22 06:17:18;;;;;;;7.83;4.93;;;;;;;;;;5051770;28;20385;-56
2022/06/22 06:19:46;;;;;;;11.70;4.67;;;;;;;;;;5051867;28;20927;-55
2022/06/22 06:22:12;;;;;;;6.33;4.53;;;;;;;;;;5051429;28;20405;-56
2022/06/22 06:27:35;;;;;;;7.93;4.20;;;;;;;;;;5051773;28;20474;-55
2022/06/22 06:30:15;;;;;;;7.00;4.50;;;;;;;;;;5051532;28;20402;-56
2022/06/22 06:32:44;;;;;;;9.47;4.80;;;;;;;;;;5051502;28;20406;-56
2022/06/22 06:35:10;;;;;;;8.07;4.70;;;;;;;;;;5051629;28;20407;-56
2022/06/22 06:37:42;;;;;;;4.67;4.30;;;;;;;;;;5051565;28;20407;-55
2022/06/22 06:40:23;;;;;;;4.27;3.97;;;;;;;;;;5051360;28;20407;-56
2022/06/22 06:42:58;;;;;;;5.07;4.30;;;;;;;;;;5051587;28;20396;-56
2022/06/22 06:45:26;;;;;;;4.87;3.97;;;;;;;;;;5051741;28;20738;-56
2022/06/22 06:47:55;;;;;;;6.73;4.17;;;;;;;;;;5051360;28;20923;-55
2022/06/22 06:50:30;;;;;;;8.07;3.70;;;;;;;;;;5044200;28;20426;-56
2022/06/22 06:53:11;;;;;;;8.40;4.17;;;;;;;;;;5031385;28;20395;-55
2022/06/22 06:55:48;;;;;;;8.23;4.47;;;;;;;;;;5031309;28;20819;-56
2022/06/22 06:58:19;;;;;;;5.00;4.50;;;;;;;;;;5031493;28;20555;-56
2022/06/22 07:00:46;;;;;;;4.60;4.00;;;;;;;;;;5031034;28;20427;-56
2022/06/22 07:03:17;;;;;;;10.03;5.00;;;;;;;;;;5031205;28;20402;-56
2022/06/22 07:05:43;;;;;;;5.50;4.97;;;;;;;;;;5031488;28;20401;-55
2022/06/22 07:08:15;;;;;;;4.93;4.33;;;;;;;;;;5034935;28;20469;-55
2022/06/22 07:10:43;;;;;;;14.23;4.77;;;;;;;;;;5034838;28;20925;-54
2022/06/22 07:13:12;;;;;;;7.70;4.87;;;;;;;;;;5035149;28;20394;-55
2022/06/22 07:15:40;;;;;;;9.00;3.80;;;;;;;;;;5034842;28;20480;-54
2022/06/22 07:18:19;;;;;;;8.67;4.37;;;;;;;;;;5035051;28;20409;-55
2022/06/22 07:20:47;;;;;;;10.17;4.60;;;;;;;;;;5034697;28;20423;-55
2022/06/22 07:23:20;;;;;;;7.80;4.30;;;;;;;;;;5034905;28;20406;-54
2022/06/22 07:25:53;;;;;;;5.57;4.13;;;;;;;;;;5034919;28;20464;-54
2022/06/22 07:28:37;;;;;;;7.53;4.20;;;;;;;;;;5034626;28;20452;-55
2022/06/22 07:31:09;;;;;;;9.17;4.67;;;;;;;;;;5034410;28;20450;-54
2022/06/22 07:33:44;;;;;;;4.87;4.00;;;;;;;;;;5034733;28;20398;-55
2022/06/22 07:36:13;;;;;;;4.20;3.77;;;;;;;;;;5034981;28;20733;-55
2022/06/22 07:38:42;;;;;;;7.53;4.10;;;;;;;;;;5034545;28;20933;-55
2022/06/22 07:41:19;;;;;;;8.60;5.00;;;;;;;;;;5034548;28;20809;-54
2022/06/22 07:43:49;;;;;;;3.70;3.40;;;;;;;;;;5034497;28;20402;-54
2022/06/22 07:46:21;;;;;;;4.83;4.00;;;;;;;;;;5034521;28;20428;-55
2022/06/22 07:48:48;;;;;;;13.03;4.93;;;;;;;;;;5034429;28;20823;-55
2022/06/22 07:51:17;;;;;;;3.93;3.53;;;;;;;;;;5034008;28;20428;-55
2022/06/22 07:53:46;;;;;;;9.60;4.20;;;;;;;;;;5034371;28;20938;-55
2022/06/22 07:56:15;;;;;;;7.00;3.77;;;;;;;;;;5034389;28;20421;-55
2022/06/22 07:58:55;;;;;;;4.33;3.70;;;;;;;;;;5034223;28;20411;-54
2022/06/22 08:01:25;;;;;;;6.60;3.80;;;;;;;;;;5033997;28;20420;-55
2022/06/22 08:03:58;;;;;;;7.83;2.87;;;;;;;;;;5034048;28;20462;-55
2022/06/22 08:06:30;;;;;;;4.70;3.60;;;;;;;;;;5034342;28;20405;-55
2022/06/22 08:08:58;;;;;;;5.53;2.97;;;;;;;;;;5033971;28;20527;-55
2022/06/22 08:11:24;;;;;;;5.67;3.20;;;;;;;;;;5033685;28;20425;-56
2022/06/22 08:14:01;;;;;;;5.20;3.17;;;;;;;;;;5034040;28;20831;-55
2022/06/22 08:16:29;;;;;;;5.53;3.07;;;;;;;;;;5034134;28;20412;-56
2022/06/22 08:18:56;;;;;;;4.03;3.63;;;;;;;;;;5033002;28;20830;-55
2022/06/22 08:21:22;;;;;;;6.53;2.57;;;;;;;;;;5033567;28;20922;-56
2022/06/22 08:23:49;;;;;;;8.00;2.83;;;;;;;;;;5033787;28;20398;-56
2022/06/22 08:26:25;;;;;;;12.50;3.23;;;;;;;;;;5033830;28;20813;-56
2022/06/22 08:28:51;;;;;;;3.47;2.87;;;;;;;;;;5033510;28;20563;-56
2022/06/22 08:31:17;;;;;;;5.20;2.90;;;;;;;;;;5033622;28;20838;-56
2022/06/22 08:33:46;;;;;;;8.33;2.80;;;;;;;;;;5033574;28;20499;-56
2022/06/22 08:36:32;;;;;;;6.23;2.20;;;;;;;;;;5033601;28;20433;-56
2022/06/22 08:39:02;;;;;;;3.10;2.30;;;;;;;;;;5033311;28;20414;-57
2022/06/22 08:41:47;;;;;;;3.03;2.57;;;;;;;;;;5033285;28;20505;-56
2022/06/22 08:44:31;;;;;;;4.40;2.37;;;;;;;;;;5033425;28;20398;-57
2022/06/22 08:47:23;;;;;;;4.70;2.63;;;;;;;;;;5033398;28;20815;-57
2022/06/22 08:49:55;;;;;;;3.50;2.57;;;;;;;;;;5032024;28;20476;-57
2022/06/22 08:52:25;;;;;;;4.43;2.87;;;;;;;;;;5049975;28;20426;-55
2022/06/22 08:55:00;;;;;;;2.60;2.27;;;;;;;;;;5055208;28;20429;-58
2022/06/22 08:57:38;;;;;;;2.40;2.03;;;;;;;;;;5059212;28;20950;-56
2022/06/22 09:00:07;;;;;;;4.83;2.40;;;;;;;;;;5056323;28;20388;-56
2022/06/22 09:03:12;;;;;;;5.83;3.20;;;;;;;;;;5054626;28;20460;-57
2022/06/22 09:05:51;;;;;;;4.77;2.10;;;;;;;;;;5035784;28;20413;-55
2022/06/22 09:08:23;;;;;;;1.50;1.40;;;;;;;;;;5031683;28;20450;-55
2022/06/22 09:10:52;;;;;;;6.97;1.87;;;;;;;;;;5043805;28;20433;-57
2022/06/22 09:13:39;;;;;;;2.57;1.90;;;;;;;;;;5054800;28;20404;-56
2022/06/22 09:16:21;;;;;;;6.40;4.13;;;;;;;;;;5055390;28;20422;-58
2022/06/22 09:19:00;;;;;;;4.83;2.03;;;;;;;;;;5052376;28;20408;-56
2022/06/22 09:21:29;;;;;;;5.80;2.07;;;;;;;;;;5052133;28;20412;-56
2022/06/22 09:24:07;;;;;;;4.83;2.00;;;;;;;;;;5054878;28;20429;-56
2022/06/22 09:26:41;;;;;;;3.50;1.80;;;;;;;;;;5054302;28;20451;-59
2022/06/22 09:29:14;;;;;;;4.20;2.17;;;;;;;;;;5053248;28;20458;-58
2022/06/22 09:31:46;;;;;;;4.13;1.87;;;;;;;;;;5052121;28;20421;-58
2022/06/22 09:34:12;;;;;;;7.07;2.40;;;;;;;;;;5052463;28;20425;-58
2022/06/22 09:36:50;;;;;;;3.63;2.43;;;;;;;;;;5052219;28;20428;-58
2022/06/22 09:39:30;;;;;;;2.30;1.67;;;;;;;;;;5052095;28;20401;-58
2022/06/22 09:42:05;;;;;;;2.37;1.90;;;;;;;;;;5052080;28;20419;-58
2022/06/22 09:44:37;;;;;;;2.00;1.63;;;;;;;;;;5052586;28;20401;-58
2022/06/22 09:47:10;;;;;;;4.40;2.10;;;;;;;;;;5052046;28;20397;-59
2022/06/22 09:49:36;;;;;;;1.60;1.50;;;;;;;;;;5052173;28;20404;-59
2022/06/22 09:52:13;;;;;;;2.03;1.83;;;;;;;;;;5051622;28;20413;-58
2022/06/22 09:58:01;;;;;;;2.63;2.00;;;;;;;;;;5032205;28;20516;-59
2022/06/22 10:00:32;;;;;;;5.13;1.93;;;;;;;;;;5050698;28;20900;-59
2022/06/22 10:02:58;;;;;;;2.30;1.60;;;;;;;;;;5052475;28;20447;-58
2022/06/22 10:05:30;;;;;;;4.30;2.00;;;;;;;;;;5055471;28;20439;-57
2022/06/22 10:07:57;;;;;;;3.23;1.73;;;;;;;;;;5054518;28;20498;-58
2022/06/22 10:10:32;;;;;;;2.37;1.73;;;;;;;;;;5056235;28;20393;-57
2022/06/22 10:12:58;;;;;;;3.73;1.80;;;;;;;;;;5058002;28;20778;-56
2022/06/22 10:15:43;;;;;;;2.10;2.00;;;;;;;;;;5055490;28;20475;-59
2022/06/22 10:18:14;;;;;;;3.13;1.73;;;;;;;;;;5051982;28;20459;-56
2022/06/22 10:20:59;;;;;;;4.20;1.87;;;;;;;;;;5051333;28;20954;-56
2022/06/22 10:23:40;;;;;;;1.60;1.50;;;;;;;;;;5051629;28;20439;-55
2022/06/22 10:26:12;;;;;;;2.27;1.93;;;;;;;;;;5051656;28;20480;-58
2022/06/22 10:29:04;;;;;;;2.23;2.07;;;;;;;;;;5051895;28;20456;-56
2022/06/22 10:31:57;;;;;;;4.10;1.97;;;;;;;;;;5042738;28;20440;-56
2022/06/22 10:34:31;;;;;;;2.73;1.70;;;;;;;;;;5043153;28;20496;-57
2022/06/22 10:37:09;;;;;;;3.20;2.80;;;;;;;;;;5051498;28;20578;-57
2022/06/22 10:39:38;;;;;;;3.63;2.13;;;;;;;;;;5055251;28;20415;-57
2022/06/22 10:45:11;;;;;;;2.10;1.90;;;;;;;;;;5055574;28;20938;-58
2022/06/22 10:47:44;;;;;;;4.03;2.27;;;;;;;;;;5057663;28;20456;-58
2022/06/22 10:50:10;;;;;;;3.03;1.50;;;;;;;;;;5054025;28;20470;-57
2022/06/22 10:52:36;;;;;;;2.87;1.90;;;;;;;;;;5056455;28;20432;-58
2022/06/22 10:55:05;;;;;;;2.80;1.77;;;;;;;;;;5056906;28;20277;-59
2022/06/22 10:57:31;;;;;;;2.33;1.87;;;;;;;;;;5054151;28;20893;-59
2022/06/22 10:59:59;;;;;;;1.80;1.70;;;;;;;;;;5053352;28;20406;-59
2022/06/22 11:02:27;;;;;;;7.13;1.83;;;;;;;;;;5053191;28;20425;-59
2022/06/22 11:04:56;;;;;;;3.47;2.00;;;;;;;;;;5054142;28;20405;-58
2022/06/22 11:07:46;;;;;;;2.57;1.77;;;;;;;;;;5053215;28;20461;-59
2022/06/22 11:10:15;;;;;;;2.47;1.77;;;;;;;;;;5047029;28;20417;-58
2022/06/22 11:12:49;;;;;;;2.60;2.30;;;;;;;;;;5055093;28;20452;-59
2022/06/22 11:15:37;;;;;;;2.87;1.80;;;;;;;;;;5050968;28;20405;-60
2022/06/22 11:18:06;;;;;;;1.70;1.60;;;;;;;;;;5052897;28;20401;-59
2022/06/22 11:20:43;;;;;;;2.80;1.60;;;;;;;;;;5054598;28;20412;-59
2022/06/22 11:23:11;;;;;;;4.30;1.80;;;;;;;;;;5054436;28;20475;-59
2022/06/22 11:31:40;;;;;;;2.57;2.00;;;;;;;;;;5051934;28;20395;-58
2022/06/22 11:34:19;;;;;;;2.13;1.33;;;;;;;;;;5054398;28;20466;-59
2022/06/22 11:36:54;;;;;;;2.30;1.60;;;;;;;;;;5037997;28;20481;-59
2022/06/22 11:39:40;;;;;;;4.13;1.90;;;;;;;;;;5043962;28;20458;-58
2022/06/22 11:42:25;;;;;;;2.07;1.70;;;;;;;;;;5054165;28;20420;-59
2022/06/22 11:47:46;;;;;;;3.00;2.03;;;;;;;;;;5052033;28;20456;-59
2022/06/22 11:50:22;;;;;;;9.50;2.40;;;;;;;;;;5053856;28;20919;-59
2022/06/22 11:52:48;;;;;;;3.50;1.53;;;;;;;;;;5053044;28;20428;-59
2022/06/22 11:55:17;;;;;;;3.57;1.63;;;;;;;;;;5053717;28;20876;-56
2022/06/22 11:57:47;;;;;;;7.03;1.80;;;;;;;;;;5054859;28;20178;-59
2022/06/22 12:00:24;;;;;;;6.10;1.83;;;;;;;;;;5053228;28;20417;-59
2022/06/22 12:02:50;;;;;;;10.50;2.03;;;;;;;;;;5054161;28;20854;-57
2022/06/22 12:05:16;;;;;;;1.67;1.57;;;;;;;;;;5054025;28;20409;-59
2022/06/22 12:07:42;;;;;;;1.90;1.80;;;;;;;;;;5053884;28;20789;-56
2022/06/22 12:10:08;;;;;;;1.93;1.83;;;;;;;;;;5053942;28;20409;-57
2022/06/22 12:12:51;;;;;;;4.50;1.77;;;;;;;;;;5053286;28;20845;-58
2022/06/22 12:15:23;;;;;;;3.63;1.57;;;;;;;;;;5053952;28;20408;-58
2022/06/22 12:17:58;;;;;;;3.17;1.53;;;;;;;;;;5053885;28;20504;-58
2022/06/22 12:20:31;;;;;;;3.20;1.60;;;;;;;;;;5054093;28;20436;-59
2022/06/22 12:23:03;;;;;;;3.10;1.70;;;;;;;;;;5053403;28;20425;-59
2022/06/22 12:25:49;;;;;;;2.33;2.10;;;;;;;;;;5053738;28;20492;-59
2022/06/22 12:28:24;;;;;;;2.73;1.50;;;;;;;;;;5053027;28;20460;-58
2022/06/22 12:31:12;;;;;;;2.70;1.70;;;;;;;;;;5053367;28;20416;-57
2022/06/22 12:33:59;;;;;;;1.83;1.43;;;;;;;;;;5053195;28;20405;-56
2022/06/22 12:36:34;;;;;;;3.53;1.77;;;;;;;;;;5053405;28;20488;-56
2022/06/22 12:39:10;;;;;;;2.10;1.93;;;;;;;;;;5053506;28;21092;-59
2022/06/22 12:41:55;;;;;;;2.40;1.97;;;;;;;;;;5039205;28;20806;-59
2022/06/22 12:44:36;;;;;;;2.53;1.73;;;;;;;;;;5033414;28;20402;-56
2022/06/22 12:47:21;;;;;;;2.13;1.60;;;;;;;;;;5032929;28;20403;-57
2022/06/22 12:49:50;;;;;;;2.63;1.80;;;;;;;;;;5033309;28;20945;-56
2022/06/22 12:52:19;;;;;;;2.60;1.70;;;;;;;;;;5033084;28;20447;-57
2022/06/22 12:55:01;;;;;;;4.43;1.90;;;;;;;;;;5040442;28;20433;-55
2022/06/22 12:57:34;;;;;;;3.30;1.70;;;;;;;;;;5053261;28;20877;-57
2022/06/22 13:00:09;;;;;;;2.90;1.70;;;;;;;;;;5051759;28;20551;-58
2022/06/22 13:02:39;;;;;;;2.30;1.53;;;;;;;;;;5052962;28;20823;-57
2022/06/22 13:05:26;;;;;;;3.40;1.73;;;;;;;;;;5052232;28;20422;-56
2022/06/22 13:08:03;;;;;;;1.83;1.70;;;;;;;;;;5053087;28;20802;-56
2022/06/22 13:10:35;;;;;;;4.97;1.50;;;;;;;;;;5052337;28;20423;-58
2022/06/22 13:13:01;;;;;;;1.90;1.60;;;;;;;;;;5052850;28;20408;-57
2022/06/22 13:15:39;;;;;;;2.07;1.87;;;;;;;;;;5052800;28;20406;-58
2022/06/22 13:18:05;;;;;;;5.87;1.70;;;;;;;;;;5052645;28;20552;-58
2022/06/22 13:20:55;;;;;;;5.13;1.73;;;;;;;;;;5037606;28;20430;-58
2022/06/22 13:23:24;;;;;;;2.60;1.60;;;;;;;;;;5032739;28;20489;-57
2022/06/22 13:25:53;;;;;;;1.83;1.50;;;;;;;;;;5049025;28;20425;-56
2022/06/22 13:28:24;;;;;;;7.03;2.13;;;;;;;;;;5052462;28;20449;-57
2022/06/22 13:30:58;;;;;;;1.70;1.57;;;;;;;;;;5052009;28;20425;-57
2022/06/22 13:33:37;;;;;;;2.83;1.50;;;;;;;;;;5050849;28;20415;-57
2022/06/22 13:36:08;;;;;;;2.67;1.70;;;;;;;;;;5052287;28;20417;-58
2022/06/22 13:38:34;;;;;;;3.23;1.67;;;;;;;;;;5045863;28;20418;-57
2022/06/22 13:41:02;;;;;;;4.93;1.70;;;;;;;;;;5031973;28;20441;-58
2022/06/22 13:43:49;;;;;;;2.17;1.83;;;;;;;;;;5050293;28;20186;-57
2022/06/22 13:46:32;;;;;;;2.20;1.63;;;;;;;;;;5040845;28;20775;-56
2022/06/22 13:48:58;;;;;;;4.17;2.10;;;;;;;;;;5050574;28;21193;-56
2022/06/22 13:51:46;;;;;;;2.90;1.73;;;;;;;;;;5051454;28;20500;-57
2022/06/22 13:54:31;;;;;;;2.60;1.70;;;;;;;;;;5031641;28;20533;-56
2022/06/22 13:57:03;;;;;;;4.87;1.67;;;;;;;;;;5031822;28;20448;-57
2022/06/22 13:59:44;;;;;;;1.60;1.50;;;;;;;;;;5032055;28;20395;-56
2022/06/22 14:02:10;;;;;;;2.70;1.60;;;;;;;;;;5032062;28;20852;-57
2022/06/22 14:04:41;;;;;;;2.17;1.77;;;;;;;;;;5032099;28;20486;-55
2022/06/22 14:07:30;;;;;;;2.30;1.63;;;;;;;;;;5044369;28;20182;-57
2022/06/22 14:10:14;;;;;;;1.73;1.43;;;;;;;;;;5041511;28;20885;-57
2022/06/22 14:12:57;;;;;;;1.93;1.60;;;;;;;;;;5051640;28;20977;-57
2022/06/22 14:15:29;;;;;;;2.23;1.60;;;;;;;;;;5051589;28;20393;-57
2022/06/22 14:18:14;;;;;;;2.17;1.97;;;;;;;;;;5051437;28;20419;-56
2022/06/22 14:20:43;;;;;;;4.33;2.13;;;;;;;;;;5041742;28;22266;-58
2022/06/22 14:23:16;;;;;;;3.80;1.60;;;;;;;;;;5031842;28;20464;-58
2022/06/22 14:25:42;;;;;;;4.13;1.90;;;;;;;;;;5031851;28;20799;-57
2022/06/22 14:28:08;;;;;;;4.47;1.60;;;;;;;;;;5031728;28;20545;-56
2022/06/22 14:30:45;;;;;;;4.10;1.20;;;;;;;;;;5031341;28;20536;-58
2022/06/22 14:33:23;;;;;;;2.87;1.50;;;;;;;;;;5031686;28;20763;-57
2022/06/22 14:36:07;;;;;;;2.30;1.60;;;;;;;;;;5032016;28;20937;-56
2022/06/22 14:38:33;;;;;;;2.07;1.40;;;;;;;;;;5031453;28;20434;-55
2022/06/22 14:41:15;;;;;;;2.33;1.87;;;;;;;;;;5031290;28;20433;-56
2022/06/22 14:43:48;;;;;;;3.83;1.50;;;;;;;;;;5046522;28;20464;-58
2022/06/22 14:46:52;;;;;;;1.93;1.57;;;;;;;;;;5031639;28;20429;-59
2022/06/22 14:49:37;;;;;;;2.77;1.90;;;;;;;;;;5026027;28;20478;-56
2022/06/22 14:52:12;;;;;;;1.90;1.60;;;;;;;;;;5030179;28;20437;-58
2022/06/22 14:54:59;;;;;;;4.63;2.17;;;;;;;;;;5030470;28;20436;-58
2022/06/22 14:57:57;;;;;;;6.50;2.07;;;;;;;;;;5031562;28;21053;-59
2022/06/22 15:00:23;;;;;;;2.03;1.80;;;;;;;;;;5019131;28;20436;-59
2022/06/22 15:03:01;;;;;;;2.20;2.00;;;;;;;;;;5042767;28;20413;-56
2022/06/22 15:05:31;;;;;;;2.40;1.70;;;;;;;;;;5051362;28;20772;-59
2022/06/22 15:08:02;;;;;;;2.40;1.67;;;;;;;;;;5051266;28;20884;-57
2022/06/22 15:10:33;;;;;;;1.90;1.80;;;;;;;;;;5050960;28;20422;-57
2022/06/22 15:13:05;;;;;;;2.20;1.80;;;;;;;;;;5059386;28;20420;-58
2022/06/22 15:15:34;;;;;;;2.80;2.10;;;;;;;;;;5050094;28;20422;-56
2022/06/22 15:18:03;;;;;;;2.63;2.43;;;;;;;;;;5053527;28;20417;-56
2022/06/22 15:20:29;;;;;;;2.20;1.97;;;;;;;;;;5050393;28;20846;-58
2022/06/22 15:23:00;;;;;;;2.47;1.60;;;;;;;;;;5050573;28;20488;-57
2022/06/22 15:25:35;;;;;;;3.40;2.17;;;;;;;;;;5050865;28;20416;-57
2022/06/22 15:28:13;;;;;;;1.90;1.73;;;;;;;;;;5051642;28;20955;-57
2022/06/22 15:30:42;;;;;;;2.40;2.20;;;;;;;;;;5059834;28;20425;-58
2022/06/22 15:33:09;;;;;;;2.70;1.50;;;;;;;;;;5053073;28;20820;-58
2022/06/22 15:35:41;;;;;;;2.30;1.40;;;;;;;;;;5052910;28;20550;-57
2022/06/22 15:38:07;;;;;;;2.70;1.50;;;;;;;;;;5054556;28;20405;-57
2022/06/22 15:40:52;;;;;;;2.97;1.53;;;;;;;;;;5054074;28;20416;-57